This is the latest recevied weather packets stored in our database for station/object WASS. If no packets are shown the sender has not sent any weather packets the latest 10 day(s).
| Time | Temp. | Humidity | Pressure | Rain* | Wind** | Luminosity | Snow |
|---|---|---|---|---|---|---|---|
| 1787561333 | 30° C | 70% | 1010 hPa | 0 mm | - | - | - |
| 1787555345 | 32.22° C | 67% | 1010 hPa | 0 mm | - | - | - |
| 1787553324 | 32.22° C | 59% | 1010 hPa | 0 mm | - | - | - |
| 1787551177 | 32.22° C | 59% | 1011 hPa | 0 mm | - | - | - |
| 1787549200 | 32.22° C | 59% | 1011 hPa | 0 mm | - | - | - |
| 1787547226 | 31.11° C | 62% | 1012 hPa | 0 mm | - | - | - |
| 1787545247 | 31.11° C | 66% | 1012 hPa | 0 mm | - | - | - |
| 1787543273 | 31.11° C | 66% | 1013 hPa | 0 mm | - | - | - |
| 1787541298 | 31.11° C | 62% | 1013 hPa | 0 mm | - | - | - |
| 1787539317 | 30° C | 70% | 1014 hPa | 0 mm | - | - | - |
| 1787537340 | 28.89° C | 74% | 1014 hPa | 0 mm | - | - | - |
| 1787535366 | 27.22° C | 84% | 1014 hPa | 0 mm | - | - | - |
| 1787533380 | 27.22° C | 89% | 1014 hPa | 0 mm | - | - | - |
| 1787531405 | 27.22° C | 89% | 1014 hPa | 0 mm | - | - | - |
| 1787529427 | 25° C | 94% | 1014 hPa | 0 mm | - | - | - |
| 1787527448 | 22.78° C | 94% | 1013 hPa | 0 mm | - | - | - |
| 1787525453 | 21.11° C | 99% | 1013 hPa | 0 mm | - | - | - |
| 1787523486 | 21.11° C | 99% | 1013 hPa | 0 mm | - | - | - |
| 1787521528 | 21.11° C | 99% | 1013 hPa | 0 mm | - | - | - |
| 1787519553 | 22.22° C | 99% | 1012 hPa | 0 mm | - | - | - |
| 1787517593 | 21.11° C | 99% | 1012 hPa | 0 mm | - | - | - |
| 1787515635 | 22.22° C | 99% | 1012 hPa | 0 mm | - | - | - |
| 1787513669 | 22.22° C | 99% | 1012 hPa | 0 mm | - | - | - |
| 1787511708 | 22.22° C | 99% | 1012 hPa | 0 mm | - | - | - |
| 1787509739 | 22.22° C | 94% | 1012 hPa | 0 mm | - | - | - |
* Rain latest hour (hover to see other rain measurements)
** Current wind speed in m/s (hover to see current wind gust speed)